createdAt,value
2023-07-27T00:01:39.054Z,13.99
2023-07-27T00:03:31.753Z,13.98
2023-07-27T00:05:26.980Z,13.95
2023-07-27T00:07:22.635Z,13.85
2023-07-27T00:09:21.016Z,13.75
2023-07-27T00:11:16.828Z,13.63
2023-07-27T00:13:09.317Z,13.61
2023-07-27T00:15:04.936Z,13.52
2023-07-27T00:17:00.727Z,13.54
2023-07-27T00:18:56.196Z,13.45
2023-07-27T00:20:51.950Z,13.46
2023-07-27T00:22:47.671Z,13.44
2023-07-27T00:24:45.810Z,13.44
2023-07-27T00:26:42.958Z,13.45
2023-07-27T00:28:35.995Z,13.45
2023-07-27T00:30:34.633Z,13.42
2023-07-27T00:32:30.011Z,13.44
2023-07-27T00:34:25.246Z,13.45
2023-07-27T00:36:18.465Z,13.35
2023-07-27T00:38:13.584Z,13.33
2023-07-27T00:40:12.832Z,13.39
2023-07-27T00:42:08.429Z,13.42
2023-07-27T00:44:03.792Z,13.37
2023-07-27T00:46:00.819Z,13.40
2023-07-27T00:47:56.158Z,13.47
2023-07-27T00:49:51.630Z,13.51
2023-07-27T00:51:48.841Z,13.55
2023-07-27T00:53:43.998Z,13.47
2023-07-27T00:55:42.022Z,13.43
2023-07-27T00:57:37.136Z,13.32
2023-07-27T00:59:32.691Z,13.30
2023-07-27T01:01:28.535Z,13.23
2023-07-27T01:03:23.792Z,13.22
2023-07-27T01:05:17.983Z,13.19
2023-07-27T01:07:13.283Z,13.20
2023-07-27T01:09:08.356Z,13.19
2023-07-27T01:11:11.718Z,13.16
2023-07-27T01:13:13.116Z,13.07
2023-07-27T01:15:13.813Z,13.04
2023-07-27T01:17:12.256Z,13.13
2023-07-27T01:19:27.927Z,13.15
2023-07-27T01:21:29.160Z,13.10
2023-07-27T01:23:46.841Z,13.09
2023-07-27T01:26:19.607Z,13.05
2023-07-27T01:28:30.041Z,12.96
2023-07-27T01:30:51.293Z,13.00
2023-07-27T01:32:47.781Z,13.08
2023-07-27T01:34:46.172Z,12.95
2023-07-27T01:36:44.590Z,12.93
2023-07-27T01:38:45.081Z,12.92
2023-07-27T01:40:42.748Z,12.93
2023-07-27T01:42:38.408Z,12.89
2023-07-27T01:44:36.449Z,12.80
2023-07-27T01:46:35.719Z,12.83
2023-07-27T01:48:32.087Z,12.88
2023-07-27T01:50:27.579Z,12.98
2023-07-27T01:52:24.321Z,12.90
2023-07-27T01:54:20.238Z,12.62
2023-07-27T01:56:17.270Z,12.73
2023-07-27T01:58:13.727Z,12.81
2023-07-27T02:00:11.059Z,12.88
2023-07-27T02:02:09.794Z,12.85
2023-07-27T02:04:05.274Z,12.76
2023-07-27T02:06:01.967Z,12.75
2023-07-27T02:07:57.429Z,12.80
2023-07-27T02:09:52.556Z,12.81
2023-07-27T02:11:52.891Z,12.79
2023-07-27T02:13:55.395Z,12.71
2023-07-27T02:15:54.228Z,12.76
2023-07-27T02:17:57.446Z,12.79
2023-07-27T02:19:59.317Z,12.77
2023-07-27T02:21:52.680Z,12.72
2023-07-27T02:23:49.687Z,12.68
2023-07-27T02:25:45.413Z,12.66
2023-07-27T02:27:40.857Z,12.59
2023-07-27T02:29:33.287Z,12.50
2023-07-27T02:31:28.736Z,12.50
2023-07-27T02:33:27.034Z,12.49
2023-07-27T02:35:23.432Z,12.50
2023-07-27T02:37:19.216Z,12.33
2023-07-27T02:39:14.552Z,12.27
2023-07-27T02:41:07.724Z,12.24
2023-07-27T02:43:03.472Z,12.23
2023-07-27T02:44:58.803Z,12.27
2023-07-27T02:46:54.473Z,12.30
2023-07-27T02:48:49.961Z,12.35
2023-07-27T02:50:53.350Z,12.31
2023-07-27T02:52:48.699Z,12.23
2023-07-27T02:54:41.537Z,12.24
2023-07-27T02:56:36.610Z,12.19
2023-07-27T02:58:32.032Z,12.27
2023-07-27T03:00:27.166Z,12.22
2023-07-27T03:02:22.433Z,12.24
2023-07-27T03:04:20.467Z,12.26
2023-07-27T03:06:15.613Z,12.33
2023-07-27T03:08:10.617Z,12.23
2023-07-27T03:10:06.742Z,12.31
2023-07-27T03:11:59.177Z,12.35
2023-07-27T03:13:55.163Z,12.34
2023-07-27T03:15:47.781Z,12.33
2023-07-27T03:17:42.972Z,12.23
2023-07-27T03:19:41.060Z,12.19
2023-07-27T03:21:33.757Z,12.18
2023-07-27T03:23:29.321Z,12.17
2023-07-27T03:25:21.808Z,12.22
2023-07-27T03:27:16.865Z,12.22
2023-07-27T03:29:12.301Z,12.26
2023-07-27T03:31:17.954Z,12.21
2023-07-27T03:33:12.962Z,12.23
2023-07-27T03:35:11.872Z,12.19
2023-07-27T03:37:07.482Z,12.18
2023-07-27T03:39:00.236Z,12.16
2023-07-27T03:40:55.332Z,12.12
2023-07-27T03:42:50.438Z,12.04
2023-07-27T03:44:46.589Z,11.88
2023-07-27T03:46:39.161Z,11.92
2023-07-27T03:48:34.770Z,11.95
2023-07-27T03:50:32.393Z,12.04
2023-07-27T03:52:27.622Z,12.05
2023-07-27T03:54:22.984Z,12.04
2023-07-27T03:56:17.999Z,12.06
2023-07-27T03:58:10.942Z,12.04
2023-07-27T04:00:06.930Z,11.95
2023-07-27T04:02:01.980Z,11.97
2023-07-27T04:03:57.415Z,11.84
2023-07-27T04:05:55.487Z,11.80
2023-07-27T04:07:53.621Z,11.81
2023-07-27T04:09:46.473Z,11.80
2023-07-27T04:11:41.538Z,11.82
2023-07-27T04:13:34.343Z,11.71
2023-07-27T04:15:29.599Z,11.71
2023-07-27T04:17:24.724Z,11.75
2023-07-27T04:19:17.524Z,11.78
2023-07-27T04:21:15.164Z,11.80
2023-07-27T04:23:14.284Z,11.86
2023-07-27T04:25:11.173Z,11.97
2023-07-27T04:27:04.387Z,12.00
2023-07-27T04:28:59.427Z,12.00
2023-07-27T04:30:54.804Z,11.99
2023-07-27T04:32:50.120Z,11.93
2023-07-27T04:34:45.206Z,11.98
2023-07-27T04:36:40.640Z,12.03
2023-07-27T04:38:36.222Z,12.03
2023-07-27T04:40:31.584Z,12.02
2023-07-27T04:42:24.048Z,12.06
2023-07-27T04:44:19.095Z,12.05
2023-07-27T04:46:14.530Z,11.99
2023-07-27T04:48:09.689Z,12.01
2023-07-27T04:50:05.317Z,12.05
2023-07-27T04:52:02.950Z,12.13
2023-07-27T04:53:58.565Z,12.05
2023-07-27T04:55:53.914Z,12.12
2023-07-27T04:57:49.526Z,12.12
2023-07-27T04:59:45.183Z,12.17
2023-07-27T05:01:38.032Z,12.23
2023-07-27T05:03:33.931Z,12.27
2023-07-27T05:05:29.331Z,12.35
2023-07-27T05:07:30.573Z,12.35
2023-07-27T05:09:26.134Z,12.30
2023-07-27T05:11:21.845Z,12.30
2023-07-27T05:13:17.275Z,12.37
2023-07-27T05:15:13.524Z,12.41
2023-07-27T05:17:09.339Z,12.50
2023-07-27T05:19:05.004Z,12.52
2023-07-27T05:21:00.620Z,12.55
2023-07-27T05:22:59.252Z,12.61
2023-07-27T05:24:54.727Z,12.68
2023-07-27T05:26:55.601Z,12.72
2023-07-27T05:28:50.693Z,12.71
2023-07-27T05:30:46.310Z,12.75
2023-07-27T05:32:41.762Z,12.77
2023-07-27T05:34:37.404Z,12.80
2023-07-27T05:36:32.776Z,12.79
2023-07-27T05:38:30.916Z,12.87
2023-07-27T05:40:26.077Z,12.93
2023-07-27T05:42:21.531Z,12.93
2023-07-27T05:44:16.673Z,12.99
2023-07-27T05:46:12.062Z,13.04
2023-07-27T05:48:08.314Z,13.14
2023-07-27T05:50:03.609Z,13.19
2023-07-27T05:51:59.068Z,13.25
2023-07-27T05:53:56.675Z,13.32
2023-07-27T05:55:52.036Z,13.39
2023-07-27T05:57:47.142Z,13.42
2023-07-27T05:59:43.802Z,13.48
2023-07-27T06:01:44.267Z,13.53
2023-07-27T06:03:39.807Z,13.65
2023-07-27T06:05:36.322Z,13.71
2023-07-27T06:07:31.701Z,13.75
2023-07-27T06:09:29.967Z,13.80
2023-07-27T06:11:25.304Z,13.84
2023-07-27T06:13:20.399Z,13.88
2023-07-27T06:15:15.432Z,13.92
2023-07-27T06:17:10.829Z,13.98
2023-07-27T06:19:05.862Z,14.01
2023-07-27T06:20:58.798Z,14.05
2023-07-27T06:22:54.272Z,14.10
2023-07-27T06:24:51.909Z,14.17
2023-07-27T06:26:47.280Z,14.25
2023-07-27T06:28:42.338Z,14.27
2023-07-27T06:30:36.328Z,14.32
2023-07-27T06:32:31.448Z,14.34
2023-07-27T06:34:27.441Z,14.37
2023-07-27T06:36:23.125Z,14.38
2023-07-27T06:38:18.588Z,14.39
2023-07-27T06:40:14.984Z,14.43
2023-07-27T06:42:10.882Z,14.48
2023-07-27T06:44:06.127Z,14.52
2023-07-27T06:46:01.516Z,14.53
2023-07-27T06:47:56.679Z,14.59
2023-07-27T06:49:51.813Z,14.66
2023-07-27T06:51:47.553Z,14.69
2023-07-27T06:53:42.616Z,14.75
2023-07-27T06:55:40.708Z,14.78
2023-07-27T06:57:33.518Z,14.82
2023-07-27T06:59:30.643Z,14.84
2023-07-27T07:01:26.368Z,14.85
2023-07-27T07:03:22.520Z,14.88
2023-07-27T07:05:17.680Z,14.92
2023-07-27T07:07:13.364Z,14.89
2023-07-27T07:09:08.503Z,14.94
2023-07-27T07:11:07.023Z,14.94
2023-07-27T07:13:02.076Z,15.01
2023-07-27T07:14:57.527Z,15.08
2023-07-27T07:16:50.293Z,15.15
2023-07-27T07:18:45.728Z,15.22
2023-07-27T07:20:40.997Z,15.25
2023-07-27T07:22:36.386Z,15.32
2023-07-27T07:24:31.432Z,15.40
2023-07-27T07:26:29.476Z,15.40
2023-07-27T07:28:23.025Z,15.34
2023-07-27T07:30:19.074Z,15.38
2023-07-27T07:32:14.592Z,15.47
2023-07-27T07:34:10.596Z,15.51
2023-07-27T07:36:05.998Z,15.65
2023-07-27T07:38:01.483Z,15.68
2023-07-27T07:39:56.658Z,15.78
2023-07-27T07:41:54.613Z,15.73
2023-07-27T07:43:49.768Z,15.73
2023-07-27T07:45:43.595Z,15.79
2023-07-27T07:47:38.803Z,15.92
2023-07-27T07:49:31.784Z,15.84
2023-07-27T07:51:27.004Z,15.89
2023-07-27T07:53:30.305Z,15.93
2023-07-27T07:55:30.189Z,15.90
2023-07-27T07:57:27.847Z,15.92
2023-07-27T07:59:27.022Z,15.88
2023-07-27T08:01:22.175Z,15.75
2023-07-27T08:03:17.753Z,15.75
2023-07-27T08:05:12.943Z,15.75
2023-07-27T08:07:08.831Z,15.76
2023-07-27T08:09:04.359Z,15.75
2023-07-27T08:11:02.226Z,15.73
2023-07-27T08:13:00.260Z,15.74
2023-07-27T08:14:55.348Z,15.72
2023-07-27T08:16:50.976Z,15.73
2023-07-27T08:18:43.469Z,15.74
2023-07-27T08:20:38.544Z,15.77
2023-07-27T08:22:31.340Z,15.81
2023-07-27T08:24:26.495Z,15.81
2023-07-27T08:26:20.018Z,15.78
2023-07-27T08:28:17.720Z,15.83
2023-07-27T08:30:13.522Z,15.83
2023-07-27T08:32:09.810Z,15.87
2023-07-27T08:34:02.315Z,15.84
2023-07-27T08:36:00.156Z,15.81
2023-07-27T08:37:58.089Z,15.84
2023-07-27T08:39:53.303Z,15.82
2023-07-27T08:41:49.786Z,15.82
2023-07-27T08:43:47.432Z,15.80
2023-07-27T08:45:40.261Z,15.86
2023-07-27T08:47:37.346Z,15.88
2023-07-27T08:49:30.581Z,15.84
2023-07-27T08:51:26.054Z,15.81
2023-07-27T08:53:21.254Z,15.71
2023-07-27T08:55:17.126Z,15.80
2023-07-27T08:57:12.256Z,15.74
2023-07-27T08:59:10.517Z,15.80
2023-07-27T09:01:05.697Z,15.82
2023-07-27T09:03:00.113Z,15.81
2023-07-27T09:04:55.684Z,15.86
2023-07-27T09:06:51.881Z,15.94
2023-07-27T09:08:47.364Z,15.90
2023-07-27T09:10:41.602Z,15.98
2023-07-27T09:12:37.859Z,15.99
2023-07-27T09:14:38.215Z,16.06
2023-07-27T09:16:37.825Z,16.10
2023-07-27T09:18:40.225Z,16.04
2023-07-27T09:20:33.073Z,16.02
2023-07-27T09:22:28.463Z,16.09
2023-07-27T09:24:26.694Z,16.10
2023-07-27T09:26:28.050Z,16.11
2023-07-27T09:28:27.233Z,16.02
2023-07-27T09:30:26.055Z,15.98
2023-07-27T09:32:21.496Z,16.08
2023-07-27T09:34:14.054Z,16.15
2023-07-27T09:36:09.434Z,16.04
2023-07-27T09:38:05.267Z,16.11
2023-07-27T09:40:11.983Z,16.09
2023-07-27T09:42:11.871Z,16.06
2023-07-27T09:44:07.961Z,16.15
2023-07-27T09:46:06.096Z,16.10
2023-07-27T09:48:01.637Z,16.11
2023-07-27T09:49:56.931Z,16.21
2023-07-27T09:51:54.253Z,16.16
2023-07-27T09:53:50.118Z,16.18
2023-07-27T09:55:45.758Z,16.22
2023-07-27T09:57:41.612Z,16.26
2023-07-27T09:59:37.384Z,16.33
2023-07-27T10:01:37.141Z,16.44
2023-07-27T10:03:32.776Z,16.53
2023-07-27T10:05:28.050Z,16.55
2023-07-27T10:07:24.322Z,16.66
2023-07-27T10:09:23.363Z,16.72
2023-07-27T10:11:18.458Z,16.74
2023-07-27T10:13:14.774Z,16.79
2023-07-27T10:15:31.741Z,16.89
2023-07-27T10:17:48.432Z,17.11
2023-07-27T10:19:45.700Z,17.16
2023-07-27T10:21:52.950Z,17.12
2023-07-27T10:23:56.866Z,17.30
2023-07-27T10:26:07.392Z,17.36
2023-07-27T10:28:07.100Z,17.43
2023-07-27T10:30:18.376Z,17.30
2023-07-27T10:32:15.363Z,17.41
2023-07-27T10:34:26.159Z,17.56
2023-07-27T10:36:23.415Z,17.40
2023-07-27T10:38:18.838Z,17.55
2023-07-27T10:40:14.140Z,17.50
2023-07-27T10:42:08.509Z,17.52
2023-07-27T10:44:18.978Z,17.73
2023-07-27T10:46:32.148Z,17.71
2023-07-27T10:48:28.817Z,17.62
2023-07-27T10:50:26.913Z,17.63
2023-07-27T10:52:21.710Z,17.68
2023-07-27T10:54:18.327Z,17.70
2023-07-27T10:56:31.242Z,17.90
2023-07-27T10:58:27.588Z,17.80
2023-07-27T11:00:22.633Z,17.82
2023-07-27T11:02:18.056Z,17.91
2023-07-27T11:04:14.994Z,18.06
2023-07-27T11:06:12.878Z,17.88
2023-07-27T11:08:08.464Z,17.79
2023-07-27T11:10:06.256Z,17.87
2023-07-27T11:12:00.728Z,17.81
2023-07-27T11:13:56.347Z,17.74
2023-07-27T11:15:51.508Z,17.76
2023-07-27T11:17:47.164Z,17.73
2023-07-27T11:19:42.580Z,17.76
2023-07-27T11:21:39.976Z,17.79
2023-07-27T11:23:35.384Z,17.96
2023-07-27T11:25:34.990Z,17.88
2023-07-27T11:27:30.458Z,17.82
2023-07-27T11:29:25.858Z,17.78
2023-07-27T11:31:18.540Z,17.73
2023-07-27T11:33:14.584Z,17.63
2023-07-27T11:35:10.162Z,17.51
2023-07-27T11:37:08.332Z,17.53
2023-07-27T11:39:03.378Z,17.53
2023-07-27T11:41:28.976Z,17.53
2023-07-27T11:43:16.412Z,17.56
2023-07-27T11:45:12.327Z,17.61
2023-07-27T11:47:08.172Z,17.70
2023-07-27T11:49:07.249Z,17.75
2023-07-27T11:51:04.374Z,17.72
2023-07-27T11:53:03.903Z,17.67
2023-07-27T11:54:59.452Z,17.62
2023-07-27T11:56:56.262Z,17.62
2023-07-27T11:58:50.026Z,17.65
2023-07-27T12:00:51.626Z,17.63
2023-07-27T12:02:50.555Z,17.76
2023-07-27T12:04:46.515Z,17.75
2023-07-27T12:06:42.392Z,17.69
2023-07-27T12:11:03.384Z,17.81
2023-07-27T12:15:29.147Z,17.84
2023-07-27T12:19:25.292Z,17.85
2023-07-27T12:27:17.383Z,17.81
2023-07-27T12:33:09.122Z,18.01
2023-07-27T12:38:58.871Z,18.08
2023-07-27T12:40:56.555Z,18.03
2023-07-27T12:42:49.275Z,18.02
2023-07-27T12:44:44.568Z,17.96
2023-07-27T12:46:39.966Z,17.94
2023-07-27T12:48:35.338Z,18.09
2023-07-27T12:50:30.821Z,18.18
2023-07-27T12:52:23.256Z,18.03
2023-07-27T12:54:18.328Z,17.93
2023-07-27T12:56:16.364Z,17.94
2023-07-27T12:58:11.655Z,17.94
2023-07-27T13:00:07.068Z,17.97
2023-07-27T13:02:02.335Z,17.85
2023-07-27T13:03:57.952Z,17.89
2023-07-27T13:05:53.120Z,17.88
2023-07-27T13:07:49.739Z,17.89
2023-07-27T13:09:42.244Z,17.92
2023-07-27T13:11:40.268Z,17.92
2023-07-27T13:13:35.350Z,17.96
2023-07-27T13:15:30.701Z,17.85
2023-07-27T13:17:23.148Z,17.84
2023-07-27T13:19:18.515Z,17.88
2023-07-27T13:21:13.876Z,17.78
2023-07-27T13:23:09.377Z,17.81
2023-07-27T13:25:05.545Z,17.78
2023-07-27T13:27:03.696Z,17.82
2023-07-27T13:28:59.192Z,17.88
2023-07-27T13:30:54.305Z,17.91
2023-07-27T13:32:47.142Z,17.85
2023-07-27T13:34:42.503Z,17.83
2023-07-27T13:36:35.376Z,17.78
2023-07-27T13:38:30.576Z,17.77
2023-07-27T13:40:26.130Z,17.75
2023-07-27T13:42:25.138Z,17.72
2023-07-27T13:44:20.735Z,17.70
2023-07-27T13:46:15.821Z,17.85
2023-07-27T13:48:10.201Z,17.81
2023-07-27T13:50:05.662Z,17.89
2023-07-27T13:51:58.452Z,17.74
2023-07-27T13:53:53.523Z,17.68
2023-07-27T13:55:50.960Z,17.67
2023-07-27T13:57:48.709Z,17.56
2023-07-27T13:59:44.181Z,17.53
2023-07-27T14:01:37.018Z,17.53
2023-07-27T14:03:32.695Z,17.59
2023-07-27T14:05:27.886Z,17.55
2023-07-27T14:07:20.365Z,17.53
2023-07-27T14:09:17.366Z,17.63
2023-07-27T14:11:12.442Z,17.67
2023-07-27T14:13:10.523Z,17.67
2023-07-27T14:15:05.736Z,17.67
2023-07-27T14:17:01.252Z,17.78
2023-07-27T14:18:56.734Z,17.75
2023-07-27T14:20:52.118Z,17.80
2023-07-27T14:22:47.169Z,17.85
2023-07-27T14:24:42.551Z,17.92
2023-07-27T14:26:37.630Z,17.98
2023-07-27T14:28:35.766Z,17.96
2023-07-27T14:30:31.761Z,17.88
2023-07-27T14:32:27.786Z,17.87
2023-07-27T14:34:23.234Z,17.83
2023-07-27T14:36:16.607Z,17.81
2023-07-27T14:38:12.000Z,17.79
2023-07-27T14:40:08.978Z,17.74
2023-07-27T14:42:04.074Z,17.72
2023-07-27T14:44:02.068Z,17.74
2023-07-27T14:45:54.747Z,17.80
2023-07-27T14:47:50.207Z,17.78
2023-07-27T14:49:43.788Z,17.77
2023-07-27T14:51:52.177Z,17.80
2023-07-27T14:53:50.251Z,17.92
2023-07-27T14:55:47.944Z,17.93
2023-07-27T14:57:43.255Z,17.84
2023-07-27T14:59:44.034Z,17.81
2023-07-27T15:01:52.993Z,17.81
2023-07-27T15:03:51.755Z,17.77
2023-07-27T15:05:47.820Z,17.76
2023-07-27T15:07:40.620Z,17.79
2023-07-27T15:09:36.090Z,17.85
2023-07-27T15:13:29.668Z,17.81
2023-07-27T15:15:24.784Z,17.72
2023-07-27T15:17:20.880Z,17.75
2023-07-27T15:19:16.380Z,17.84
2023-07-27T15:21:12.086Z,17.85
2023-07-27T15:23:07.661Z,17.94
2023-07-27T15:25:02.902Z,17.91
2023-07-27T15:26:59.339Z,17.91
2023-07-27T15:28:52.307Z,17.83
2023-07-27T15:30:50.246Z,17.96
2023-07-27T15:32:45.437Z,18.01
2023-07-27T15:34:38.461Z,17.93
2023-07-27T15:36:33.722Z,17.77
2023-07-27T15:38:29.386Z,17.78
2023-07-27T15:40:25.154Z,17.81
2023-07-27T15:42:17.934Z,17.63
2023-07-27T15:44:13.508Z,17.52
2023-07-27T15:46:12.031Z,17.56
2023-07-27T15:48:06.328Z,17.54
2023-07-27T15:50:02.338Z,17.48
2023-07-27T15:51:59.140Z,17.49
2023-07-27T15:53:54.650Z,17.55
2023-07-27T15:55:53.287Z,17.54
2023-07-27T15:57:46.997Z,17.64
2023-07-27T15:59:43.201Z,17.69
2023-07-27T16:01:41.152Z,17.75
2023-07-27T16:03:37.504Z,17.72
2023-07-27T16:05:35.588Z,17.74
2023-07-27T16:07:31.418Z,17.42
2023-07-27T16:09:27.979Z,17.26
2023-07-27T16:11:23.415Z,17.06
2023-07-27T16:13:20.690Z,16.67
2023-07-27T16:15:16.463Z,16.08
2023-07-27T16:17:15.341Z,15.86
2023-07-27T16:19:10.642Z,15.71
2023-07-27T16:21:09.606Z,15.57
2023-07-27T16:23:06.010Z,15.58
2023-07-27T16:25:01.555Z,15.63
2023-07-27T16:26:58.518Z,15.50
2023-07-27T16:28:54.629Z,15.52
2023-07-27T16:30:51.751Z,15.53
2023-07-27T16:32:48.359Z,15.50
2023-07-27T16:34:44.465Z,15.58
2023-07-27T16:36:39.639Z,15.58
2023-07-27T16:38:38.159Z,15.64
2023-07-27T16:40:36.366Z,15.74
2023-07-27T16:42:34.140Z,15.78
2023-07-27T16:44:30.988Z,15.79
2023-07-27T16:46:28.670Z,15.54
2023-07-27T16:48:27.492Z,15.48
2023-07-27T16:50:24.262Z,15.34
2023-07-27T16:52:19.341Z,15.30
2023-07-27T16:54:15.310Z,15.36
2023-07-27T16:56:11.891Z,15.31
2023-07-27T16:58:08.722Z,15.26
2023-07-27T17:00:06.437Z,15.34
2023-07-27T17:02:06.769Z,15.38
2023-07-27T17:04:07.197Z,15.45
2023-07-27T17:06:07.423Z,15.43
2023-07-27T17:08:05.788Z,15.42
2023-07-27T17:10:03.017Z,15.37
2023-07-27T17:12:00.248Z,15.41
2023-07-27T17:13:56.079Z,15.44
2023-07-27T17:16:02.367Z,15.48
2023-07-27T17:17:55.383Z,15.50
2023-07-27T17:19:54.351Z,15.49
2023-07-27T17:21:50.594Z,15.42
2023-07-27T17:23:44.194Z,15.40
2023-07-27T17:25:39.352Z,15.44
2023-07-27T17:27:31.924Z,15.45
2023-07-27T17:29:27.872Z,15.48
2023-07-27T17:31:23.089Z,15.46
2023-07-27T17:33:18.778Z,15.46
2023-07-27T17:35:16.595Z,15.48
2023-07-27T17:37:12.097Z,15.45
2023-07-27T17:39:10.333Z,15.43
2023-07-27T17:41:07.841Z,15.46
2023-07-27T17:43:15.011Z,15.46
2023-07-27T17:45:14.003Z,15.43
2023-07-27T17:47:09.362Z,15.45
2023-07-27T17:49:04.739Z,15.45
2023-07-27T17:51:04.587Z,15.42
2023-07-27T17:52:57.458Z,15.32
2023-07-27T17:54:52.502Z,15.31
2023-07-27T17:56:48.071Z,15.30
2023-07-27T17:58:40.728Z,15.26
2023-07-27T18:00:36.176Z,15.21
2023-07-27T18:02:31.444Z,15.29
2023-07-27T18:04:24.329Z,15.28
2023-07-27T18:06:21.976Z,15.25
2023-07-27T18:08:18.005Z,15.22
2023-07-27T18:10:13.464Z,15.26
2023-07-27T18:12:09.125Z,15.24
2023-07-27T18:14:05.101Z,15.24
2023-07-27T18:15:58.934Z,15.27
2023-07-27T18:17:55.057Z,15.24
2023-07-27T18:19:50.384Z,15.24
2023-07-27T18:21:51.916Z,15.26
2023-07-27T18:23:49.768Z,15.20
2023-07-27T18:25:45.388Z,15.23
2023-07-27T18:27:40.636Z,15.17
2023-07-27T18:29:35.700Z,15.19
2023-07-27T18:31:31.472Z,15.18
2023-07-27T18:33:29.335Z,15.18
2023-07-27T18:35:24.936Z,15.22
2023-07-27T18:37:23.137Z,15.20
2023-07-27T18:39:18.827Z,15.18
2023-07-27T18:41:13.517Z,15.16
2023-07-27T18:43:12.008Z,15.11
2023-07-27T18:45:06.855Z,15.09
2023-07-27T18:47:02.885Z,15.07
2023-07-27T18:48:59.773Z,15.10
2023-07-27T18:50:57.100Z,15.14
2023-07-27T18:52:55.709Z,15.14
2023-07-27T18:55:19.934Z,15.15
2023-07-27T18:57:28.049Z,15.16
2023-07-27T18:59:23.647Z,15.14
2023-07-27T19:01:19.251Z,15.11
2023-07-27T19:03:12.196Z,15.08
2023-07-27T19:05:08.392Z,15.08
2023-07-27T19:07:03.908Z,15.03
2023-07-27T19:09:02.176Z,15.07
2023-07-27T19:10:57.748Z,15.08
2023-07-27T19:12:52.980Z,15.13
2023-07-27T19:14:48.235Z,15.15
2023-07-27T19:16:44.050Z,15.17
2023-07-27T19:18:36.764Z,15.18
2023-07-27T19:20:32.442Z,15.15
2023-07-27T19:22:27.950Z,15.14
2023-07-27T19:24:25.721Z,15.14
2023-07-27T19:26:20.052Z,15.16
2023-07-27T19:28:15.525Z,15.18
2023-07-27T19:30:12.470Z,15.19
2023-07-27T19:32:12.105Z,15.16
2023-07-27T19:34:07.511Z,15.18
2023-07-27T19:36:02.158Z,15.15
2023-07-27T19:37:57.396Z,15.15
2023-07-27T19:39:56.984Z,15.20
2023-07-27T19:41:51.695Z,15.21
2023-07-27T19:43:47.393Z,15.19
2023-07-27T19:45:42.875Z,15.18
2023-07-27T19:47:38.039Z,15.17
2023-07-27T19:49:31.004Z,15.17
2023-07-27T19:51:27.036Z,15.19
2023-07-27T19:53:19.961Z,15.21
2023-07-27T19:55:17.929Z,15.24
2023-07-27T19:57:13.494Z,15.19
2023-07-27T19:59:08.989Z,15.19
2023-07-27T20:01:17.595Z,15.20
2023-07-27T20:03:27.446Z,15.24
2023-07-27T20:05:26.697Z,15.30
2023-07-27T20:07:24.126Z,15.26
2023-07-27T20:09:22.547Z,15.25
2023-07-27T20:11:20.349Z,15.29
2023-07-27T20:13:13.338Z,15.30
2023-07-27T20:15:09.641Z,15.29
2023-07-27T20:17:02.599Z,15.29
2023-07-27T20:18:58.181Z,15.31
2023-07-27T20:20:53.299Z,15.31
2023-07-27T20:22:46.486Z,15.31
2023-07-27T20:24:43.646Z,15.32
2023-07-27T20:26:42.196Z,15.30
2023-07-27T20:28:37.323Z,15.29
2023-07-27T20:30:32.901Z,15.30
2023-07-27T20:32:29.661Z,15.32
2023-07-27T20:34:26.187Z,15.34
2023-07-27T20:36:21.175Z,15.36
2023-07-27T20:38:20.265Z,15.38
2023-07-27T20:40:16.348Z,15.40
2023-07-27T20:42:14.505Z,15.36
2023-07-27T20:44:09.654Z,15.37
2023-07-27T20:46:07.002Z,15.33
2023-07-27T20:48:02.417Z,15.31
2023-07-27T20:49:58.567Z,15.30
2023-07-27T20:51:51.580Z,15.32
2023-07-27T20:53:47.408Z,15.32
2023-07-27T20:55:42.765Z,15.32
2023-07-27T20:57:41.015Z,15.33
2023-07-27T20:59:33.725Z,15.31
2023-07-27T21:01:29.785Z,15.31
2023-07-27T21:03:25.158Z,15.34
2023-07-27T21:05:20.690Z,15.34
2023-07-27T21:07:16.374Z,15.32
2023-07-27T21:09:11.709Z,15.31
2023-07-27T21:11:08.629Z,15.30
2023-07-27T21:13:06.556Z,15.30
2023-07-27T21:14:59.797Z,15.28
2023-07-27T21:16:55.140Z,15.28
2023-07-27T21:18:50.830Z,15.30
2023-07-27T21:20:43.563Z,15.32
2023-07-27T21:22:38.845Z,15.31
2023-07-27T21:24:34.739Z,15.33
2023-07-27T21:26:30.186Z,15.32
2023-07-27T21:28:26.072Z,15.29
2023-07-27T21:30:21.545Z,15.31
2023-07-27T21:32:16.883Z,15.29
2023-07-27T21:34:13.169Z,15.29
2023-07-27T21:36:09.127Z,15.31
2023-07-27T21:38:04.472Z,15.32
2023-07-27T21:40:12.977Z,15.31
2023-07-27T21:42:09.987Z,15.31
2023-07-27T21:44:08.289Z,15.33
2023-07-27T21:46:04.045Z,15.33
2023-07-27T21:47:59.520Z,15.32
2023-07-27T21:49:55.186Z,15.34
2023-07-27T21:51:51.479Z,15.36
2023-07-27T21:53:47.264Z,15.35
2023-07-27T21:55:40.308Z,15.36
2023-07-27T21:57:35.698Z,15.37
2023-07-27T21:59:33.958Z,15.38
2023-07-27T22:01:30.346Z,15.37
2023-07-27T22:03:26.289Z,15.33
2023-07-27T22:05:19.050Z,15.33
2023-07-27T22:07:14.480Z,15.31
2023-07-27T22:09:10.619Z,15.29
2023-07-27T22:11:03.481Z,15.25
2023-07-27T22:12:59.194Z,15.24
2023-07-27T22:14:54.489Z,15.27
2023-07-27T22:16:50.252Z,15.25
2023-07-27T22:18:42.952Z,15.26
2023-07-27T22:20:43.575Z,15.25
2023-07-27T22:22:39.008Z,15.27
2023-07-27T22:24:34.440Z,15.26
2023-07-27T22:26:30.101Z,15.28
2023-07-27T22:28:22.922Z,15.25
2023-07-27T22:30:21.370Z,15.29
2023-07-27T22:32:16.696Z,15.30
2023-07-27T22:34:09.684Z,15.26
2023-07-27T22:36:05.356Z,15.28
2023-07-27T22:37:58.282Z,15.29
2023-07-27T22:39:53.857Z,15.30
2023-07-27T22:41:49.920Z,15.27
2023-07-27T22:43:45.440Z,15.29
2023-07-27T22:45:41.161Z,15.27
2023-07-27T22:47:36.523Z,15.29
2023-07-27T22:49:31.868Z,15.29
2023-07-27T22:51:27.564Z,15.29
2023-07-27T22:53:20.347Z,15.31
2023-07-27T22:55:17.085Z,15.31
2023-07-27T22:57:16.475Z,15.35
2023-07-27T23:06:22.862Z,15.38
2023-07-27T23:08:38.437Z,15.36
2023-07-27T23:10:31.162Z,15.41
2023-07-27T23:12:26.558Z,15.37
2023-07-27T23:14:21.694Z,15.37
2023-07-27T23:16:18.243Z,15.31
2023-07-27T23:18:13.270Z,15.29
2023-07-27T23:20:10.314Z,15.31
2023-07-27T23:22:05.600Z,15.30
2023-07-27T23:24:01.064Z,15.32
2023-07-27T23:25:56.227Z,15.34
2023-07-27T23:27:49.125Z,15.37
2023-07-27T23:29:44.140Z,15.41
2023-07-27T23:31:39.616Z,15.45
2023-07-27T23:33:35.080Z,15.46
2023-07-27T23:35:30.404Z,15.48
2023-07-27T23:37:23.286Z,15.49
2023-07-27T23:39:21.010Z,15.50
2023-07-27T23:41:16.397Z,15.49
2023-07-27T23:43:11.914Z,15.46
2023-07-27T23:45:08.513Z,15.44
2023-07-27T23:47:01.041Z,15.44
2023-07-27T23:48:56.425Z,15.46
2023-07-27T23:50:49.271Z,15.47
2023-07-27T23:52:44.394Z,15.49
2023-07-27T23:54:39.531Z,15.49
2023-07-27T23:56:35.162Z,15.46
2023-07-27T23:58:30.438Z,15.45
